Time;durP1;ratioP1;P1;durP2;ratioP2;P2;SDS_P1;SDS_P2;PMS_P1;PMS_P2;Temp;Humidity;BMP_temperature;BMP_pressure;BME280_temperature;BME280_humidity;BME280_pressure;Samples;Min_cycle;Max_cycle;Signal;HPM_P1;HPM_P2
2023/12/04 00:00:28;;;;;;;53.97;21.20;;;3.00;99.90;;;;;;5007878;28;20030;-80
2023/12/04 00:02:53;;;;;;;48.58;19.33;;;3.10;99.90;;;;;;5008952;28;20101;-79
2023/12/04 00:05:19;;;;;;;49.90;19.02;;;3.10;99.90;;;;;;5006186;28;20049;-76
2023/12/04 00:07:45;;;;;;;48.08;19.30;;;3.10;99.90;;;;;;5010590;28;20025;-79
2023/12/04 00:10:11;;;;;;;49.72;20.42;;;3.10;99.90;;;;;;5013999;28;20104;-79
2023/12/04 00:12:36;;;;;;;49.50;20.23;;;3.10;99.90;;;;;;5012828;28;20026;-78
2023/12/04 00:15:02;;;;;;;50.08;19.55;;;3.00;99.90;;;;;;5009939;28;20084;-76
2023/12/04 00:17:28;;;;;;;47.00;18.02;;;3.00;99.90;;;;;;5013770;28;20117;-72
2023/12/04 00:19:54;;;;;;;46.10;19.38;;;3.10;99.90;;;;;;4992746;28;20056;-76
2023/12/04 00:22:19;;;;;;;46.13;18.40;;;3.10;99.90;;;;;;5011043;28;20137;-74
2023/12/04 00:24:45;;;;;;;40.90;17.95;;;3.00;99.90;;;;;;5014528;28;20057;-72
2023/12/04 00:27:11;;;;;;;42.63;18.17;;;3.00;99.90;;;;;;5013102;28;20061;-76
2023/12/04 00:29:37;;;;;;;56.55;19.10;;;3.00;99.90;;;;;;5014031;28;20494;-77
2023/12/04 00:32:03;;;;;;;41.45;17.17;;;3.00;99.90;;;;;;5013800;28;20068;-79
2023/12/04 00:34:29;;;;;;;45.45;18.88;;;3.00;99.90;;;;;;5010217;28;20032;-74
2023/12/04 00:36:55;;;;;;;48.72;19.05;;;3.00;99.90;;;;;;5013672;28;20025;-72
2023/12/04 00:39:20;;;;;;;45.40;19.00;;;3.00;99.90;;;;;;4991447;28;20557;-72
2023/12/04 00:41:46;;;;;;;46.30;19.33;;;3.00;99.90;;;;;;5011891;28;20026;-73
2023/12/04 00:44:12;;;;;;;52.65;20.40;;;3.10;99.90;;;;;;5009986;28;20080;-77
2023/12/04 00:46:37;;;;;;;49.45;19.65;;;3.10;99.90;;;;;;5012177;28;20453;-79
2023/12/04 00:49:03;;;;;;;52.60;20.88;;;3.10;99.90;;;;;;5011595;28;20026;-72
2023/12/04 00:51:29;;;;;;;46.10;20.27;;;3.10;99.90;;;;;;5013391;28;20030;-76
2023/12/04 00:53:54;;;;;;;45.05;18.20;;;3.10;99.90;;;;;;5010864;28;20382;-74
2023/12/04 00:56:20;;;;;;;37.75;17.83;;;3.00;99.90;;;;;;4994300;28;20025;-76
2023/12/04 00:58:46;;;;;;;45.83;17.27;;;3.00;99.90;;;;;;5011222;28;20030;-77
2023/12/04 01:01:12;;;;;;;38.03;16.80;;;3.10;99.90;;;;;;5013243;28;20068;-72
2023/12/04 01:03:38;;;;;;;42.20;18.23;;;3.10;99.90;;;;;;5012004;28;20034;-72
2023/12/04 01:06:03;;;;;;;41.70;17.10;;;3.10;99.90;;;;;;5011895;28;20030;-76
2023/12/04 01:08:29;;;;;;;44.10;18.27;;;3.20;99.90;;;;;;5012402;28;20132;-75
2023/12/04 01:10:55;;;;;;;41.28;17.38;;;3.20;99.90;;;;;;5012959;28;20026;-72
2023/12/04 01:13:21;;;;;;;51.33;18.30;;;3.20;99.90;;;;;;5009434;28;20022;-71
2023/12/04 01:15:48;;;;;;;43.33;18.70;;;3.20;99.90;;;;;;5011758;28;20474;-71
2023/12/04 01:18:14;;;;;;;46.80;18.17;;;3.10;99.90;;;;;;5012147;28;20022;-73
2023/12/04 01:20:40;;;;;;;41.20;17.02;;;3.10;99.90;;;;;;5013460;28;20545;-75
2023/12/04 01:23:06;;;;;;;39.17;15.68;;;3.10;99.90;;;;;;5008836;28;20029;-71
2023/12/04 01:25:31;;;;;;;43.50;17.00;;;3.10;99.90;;;;;;5010983;28;20042;-71
2023/12/04 01:27:57;;;;;;;46.40;18.42;;;3.10;99.90;;;;;;5012623;28;20416;-74
2023/12/04 01:30:23;;;;;;;51.15;17.80;;;3.10;99.90;;;;;;5011010;28;20356;-72
2023/12/04 01:32:48;;;;;;;40.80;16.42;;;3.20;99.90;;;;;;5004610;28;20419;-72
2023/12/04 01:35:14;;;;;;;44.50;17.70;;;3.10;99.90;;;;;;5006993;28;20495;-72
2023/12/04 01:37:40;;;;;;;40.97;17.17;;;3.10;99.90;;;;;;5010079;28;20034;-71
2023/12/04 01:40:06;;;;;;;42.05;17.08;;;3.10;99.90;;;;;;5012549;28;20057;-71
2023/12/04 01:42:32;;;;;;;46.50;18.00;;;3.10;99.90;;;;;;5009360;28;20022;-76
2023/12/04 01:44:58;;;;;;;38.10;15.68;;;3.10;99.90;;;;;;5010953;28;20036;-73
2023/12/04 01:47:24;;;;;;;45.60;17.40;;;3.10;99.90;;;;;;5011613;28;20026;-71
2023/12/04 01:49:51;;;;;;;43.38;18.48;;;3.10;99.90;;;;;;5012945;28;20384;-74
2023/12/04 01:52:16;;;;;;;34.42;16.42;;;3.10;99.90;;;;;;4989938;28;20021;-72
2023/12/04 01:54:43;;;;;;;40.60;17.02;;;3.10;99.90;;;;;;5011199;28;20479;-77
2023/12/04 01:57:10;;;;;;;37.08;16.25;;;3.10;99.90;;;;;;5010130;28;20117;-74
2023/12/04 01:59:36;;;;;;;37.30;16.65;;;3.10;99.90;;;;;;5012498;28;20033;-73
2023/12/04 02:02:02;;;;;;;35.47;16.00;;;3.10;99.90;;;;;;5011928;28;20040;-75
2023/12/04 02:04:28;;;;;;;41.67;16.35;;;3.00;99.90;;;;;;5011094;28;20104;-72
2023/12/04 02:06:54;;;;;;;33.13;16.25;;;3.10;99.90;;;;;;5011480;28;20398;-72
2023/12/04 02:09:20;;;;;;;39.08;16.90;;;3.00;99.90;;;;;;5009658;28;20105;-72
2023/12/04 02:11:46;;;;;;;36.25;16.27;;;3.00;99.90;;;;;;5011559;28;20134;-72
2023/12/04 02:14:12;;;;;;;36.30;16.65;;;3.00;99.90;;;;;;5008365;28;20021;-72
2023/12/04 02:16:41;;;;;;;35.65;15.80;;;3.10;99.90;;;;;;5011482;28;20034;-72
2023/12/04 02:19:12;;;;;;;41.63;17.60;;;3.10;99.90;;;;;;5011407;28;20080;-71
2023/12/04 02:21:38;;;;;;;36.30;16.52;;;3.10;99.90;;;;;;5011654;28;20097;-74
2023/12/04 02:24:04;;;;;;;40.47;16.58;;;3.00;99.90;;;;;;5009339;28;20121;-72
2023/12/04 02:26:37;;;;;;;33.88;14.50;;;3.00;99.90;;;;;;5007932;28;20029;-71
2023/12/04 02:29:11;;;;;;;32.72;14.57;;;3.10;99.90;;;;;;4990506;28;20030;-71
2023/12/04 02:31:39;;;;;;;39.95;16.90;;;3.10;99.90;;;;;;5008384;28;20116;-74
2023/12/04 02:34:07;;;;;;;34.50;15.68;;;3.10;99.90;;;;;;4989958;28;20022;-73
2023/12/04 02:36:35;;;;;;;36.85;15.88;;;3.00;99.90;;;;;;5009364;28;20034;-71
2023/12/04 02:39:02;;;;;;;42.83;16.42;;;3.00;99.90;;;;;;5010648;28;20030;-72
2023/12/04 02:41:27;;;;;;;34.63;16.00;;;3.00;99.90;;;;;;5009810;28;20037;-78
2023/12/04 02:43:53;;;;;;;38.75;16.83;;;3.00;99.90;;;;;;5010240;28;20364;-77
2023/12/04 02:46:19;;;;;;;31.08;14.25;;;3.00;99.90;;;;;;5008566;28;20164;-71
2023/12/04 02:48:45;;;;;;;37.38;14.98;;;3.00;99.90;;;;;;5009412;28;20022;-71
2023/12/04 02:51:11;;;;;;;33.40;14.98;;;3.00;99.90;;;;;;5009930;28;20038;-71
2023/12/04 02:53:36;;;;;;;31.38;15.05;;;3.10;99.90;;;;;;5012204;28;20018;-75
2023/12/04 02:56:02;;;;;;;31.40;14.75;;;3.00;99.90;;;;;;5007837;28;20034;-77
2023/12/04 02:58:28;;;;;;;33.33;14.68;;;2.90;99.90;;;;;;4992506;28;20561;-72
2023/12/04 03:00:54;;;;;;;30.55;14.10;;;2.90;99.90;;;;;;5009902;28;20046;-74
2023/12/04 03:03:19;;;;;;;33.03;14.90;;;2.90;99.90;;;;;;5007508;28;20382;-72
2023/12/04 03:05:45;;;;;;;28.48;13.43;;;3.00;99.90;;;;;;5010514;28;20056;-75
2023/12/04 03:08:11;;;;;;;36.70;14.77;;;2.90;99.90;;;;;;5009716;28;20022;-71
2023/12/04 03:10:36;;;;;;;32.97;14.60;;;2.90;99.90;;;;;;5008748;28;20038;-71
2023/12/04 03:13:02;;;;;;;29.67;14.23;;;2.80;99.90;;;;;;5011284;28;20479;-71
2023/12/04 03:15:28;;;;;;;32.33;14.88;;;2.80;99.90;;;;;;5011182;28;20431;-72
2023/12/04 03:17:55;;;;;;;34.17;14.00;;;2.90;99.90;;;;;;5008100;28;20029;-74
2023/12/04 03:20:21;;;;;;;30.45;14.07;;;2.80;99.90;;;;;;5011814;28;20105;-71
2023/12/04 03:22:47;;;;;;;32.47;13.50;;;2.90;99.90;;;;;;5007399;28;20104;-71
2023/12/04 03:25:12;;;;;;;33.92;14.75;;;2.80;99.90;;;;;;5010727;28;20030;-72
2023/12/04 03:27:38;;;;;;;31.55;13.57;;;2.80;99.90;;;;;;5010163;28;20139;-73
2023/12/04 03:30:05;;;;;;;30.98;13.68;;;2.80;99.90;;;;;;5011757;28;20041;-72
2023/12/04 03:32:31;;;;;;;29.85;14.70;;;2.80;99.90;;;;;;5010967;28;20025;-71
2023/12/04 03:34:57;;;;;;;29.92;14.38;;;2.80;99.90;;;;;;5007096;28;20550;-72
2023/12/04 03:37:23;;;;;;;30.73;14.35;;;2.80;99.90;;;;;;5010458;28;20018;-74
2023/12/04 03:39:50;;;;;;;33.50;15.32;;;2.80;99.90;;;;;;5007917;28;20112;-71
2023/12/04 03:42:16;;;;;;;31.48;14.02;;;2.80;99.90;;;;;;5006542;28;20464;-71
2023/12/04 03:44:41;;;;;;;28.80;13.95;;;2.70;99.90;;;;;;5012321;28;20032;-71
2023/12/04 03:47:07;;;;;;;28.10;14.35;;;2.80;99.90;;;;;;4997302;28;20495;-73
2023/12/04 03:49:33;;;;;;;32.42;14.02;;;2.70;99.90;;;;;;5012655;28;20018;-71
2023/12/04 03:51:58;;;;;;;30.38;13.07;;;2.70;99.90;;;;;;5014884;28;20471;-70
2023/12/04 03:54:24;;;;;;;31.67;14.32;;;2.80;99.90;;;;;;5013290;28;20478;-71
2023/12/04 03:56:50;;;;;;;31.00;13.75;;;2.70;99.90;;;;;;5012467;28;20644;-74
2023/12/04 03:59:15;;;;;;;32.05;13.85;;;2.70;99.90;;;;;;5013579;28;20036;-71
2023/12/04 04:01:41;;;;;;;29.73;13.65;;;2.70;99.90;;;;;;5010930;28;20153;-71
2023/12/04 04:04:07;;;;;;;27.48;13.65;;;2.70;99.90;;;;;;5014353;28;20181;-71
2023/12/04 04:06:32;;;;;;;26.25;13.18;;;2.70;99.90;;;;;;5013817;28;20026;-71
2023/12/04 04:08:58;;;;;;;26.92;12.38;;;2.70;99.90;;;;;;5015440;28;20470;-71
2023/12/04 04:11:24;;;;;;;31.20;13.35;;;2.70;99.90;;;;;;5010662;28;20493;-76
2023/12/04 04:13:49;;;;;;;29.33;14.82;;;2.70;99.90;;;;;;5013219;28;20471;-75
2023/12/04 04:16:16;;;;;;;29.60;12.57;;;2.70;99.90;;;;;;5012230;28;20355;-71
2023/12/04 04:18:43;;;;;;;24.67;12.45;;;2.70;99.90;;;;;;5013420;28;20070;-72
2023/12/04 04:21:09;;;;;;;29.52;13.15;;;2.70;99.90;;;;;;5012004;28;20030;-71
2023/12/04 04:23:35;;;;;;;28.83;14.35;;;2.80;99.90;;;;;;5014166;28;20034;-71
2023/12/04 04:26:00;;;;;;;26.83;12.98;;;2.70;99.90;;;;;;5012739;28;20425;-71
2023/12/04 04:28:26;;;;;;;30.83;14.80;;;2.70;99.90;;;;;;5012593;28;20061;-72
2023/12/04 04:30:52;;;;;;;29.63;14.52;;;2.70;99.90;;;;;;5012422;28;20045;-71
2023/12/04 04:33:18;;;;;;;29.92;14.95;;;2.70;99.90;;;;;;5009480;28;20091;-76
2023/12/04 04:35:43;;;;;;;29.08;13.60;;;2.70;99.90;;;;;;5012103;28;20034;-71
2023/12/04 04:38:09;;;;;;;28.30;13.75;;;2.80;99.90;;;;;;4995904;28;20088;-71
2023/12/04 04:40:35;;;;;;;28.77;13.25;;;2.70;99.90;;;;;;5011324;28;20120;-71
2023/12/04 04:43:01;;;;;;;30.85;15.15;;;2.80;99.90;;;;;;5008460;28;20018;-71
2023/12/04 04:45:27;;;;;;;27.10;12.90;;;2.70;99.90;;;;;;5012221;28;20040;-71
2023/12/04 04:47:52;;;;;;;30.08;14.10;;;2.70;99.90;;;;;;5012412;28;20021;-71
2023/12/04 04:50:18;;;;;;;32.53;15.55;;;2.70;99.90;;;;;;5009220;28;20105;-71
2023/12/04 04:52:44;;;;;;;25.20;13.63;;;2.80;99.90;;;;;;5011129;28;20030;-72
2023/12/04 04:55:09;;;;;;;27.55;14.55;;;2.70;99.90;;;;;;5007895;28;20100;-73
2023/12/04 04:57:35;;;;;;;26.55;12.40;;;2.80;99.90;;;;;;5010208;28;20041;-71
2023/12/04 05:00:01;;;;;;;32.38;14.57;;;2.70;99.90;;;;;;5009518;28;20049;-78
2023/12/04 05:02:27;;;;;;;30.60;14.88;;;2.80;99.90;;;;;;5011674;28;20054;-75
2023/12/04 05:04:52;;;;;;;26.65;14.05;;;2.80;99.90;;;;;;5011886;28;20025;-73
2023/12/04 05:07:18;;;;;;;24.83;13.23;;;2.80;99.90;;;;;;5008847;28;20437;-72
2023/12/04 05:09:43;;;;;;;26.17;13.05;;;2.80;99.90;;;;;;5011595;28;20398;-71
2023/12/04 05:12:09;;;;;;;23.10;12.82;;;2.80;99.90;;;;;;5009597;28;20065;-73
2023/12/04 05:14:35;;;;;;;26.40;14.15;;;2.80;99.90;;;;;;5011551;28;20033;-72
2023/12/04 05:17:01;;;;;;;26.55;13.68;;;2.80;99.90;;;;;;5010079;28;20041;-73
2023/12/04 05:19:26;;;;;;;26.75;12.77;;;2.80;99.90;;;;;;5011999;28;20022;-72
2023/12/04 05:21:52;;;;;;;26.20;13.65;;;2.80;99.90;;;;;;5009659;28;20037;-71
2023/12/04 05:24:17;;;;;;;26.80;13.77;;;2.90;99.90;;;;;;5012224;28;20033;-72
2023/12/04 05:26:43;;;;;;;23.60;12.68;;;2.90;99.90;;;;;;5009009;28;20042;-74
2023/12/04 05:29:09;;;;;;;26.73;12.43;;;2.90;99.90;;;;;;4971841;28;1164802;-75
2023/12/04 05:31:34;;;;;;;28.73;14.65;;;2.90;99.90;;;;;;5010099;28;20590;-72
2023/12/04 05:34:00;;;;;;;24.90;12.90;;;2.80;99.90;;;;;;5013606;28;20093;-77
2023/12/04 05:36:27;;;;;;;23.92;12.50;;;2.80;99.90;;;;;;5012291;28;20581;-78
2023/12/04 05:38:53;;;;;;;22.90;13.18;;;2.80;99.90;;;;;;5009920;28;20410;-76
2023/12/04 05:41:19;;;;;;;23.73;13.13;;;2.80;99.90;;;;;;4993793;28;20027;-76
2023/12/04 05:43:45;;;;;;;26.77;12.95;;;2.80;99.90;;;;;;5007785;28;20036;-73
2023/12/04 05:46:10;;;;;;;23.48;11.57;;;2.80;99.90;;;;;;4991023;28;20034;-75
2023/12/04 05:48:36;;;;;;;25.08;12.48;;;2.70;99.90;;;;;;5012262;28;20105;-75
2023/12/04 05:51:02;;;;;;;23.98;11.43;;;2.70;99.90;;;;;;5009825;28;20026;-75
2023/12/04 05:53:29;;;;;;;22.40;11.55;;;2.80;99.90;;;;;;5012032;28;20109;-76
2023/12/04 05:55:54;;;;;;;19.67;10.60;;;2.70;99.90;;;;;;5009584;28;20075;-73
2023/12/04 05:58:20;;;;;;;22.77;11.90;;;2.70;99.90;;;;;;5011217;28;20104;-76
2023/12/04 06:00:46;;;;;;;20.27;11.02;;;2.80;99.90;;;;;;5011976;28;20058;-74
2023/12/04 06:03:12;;;;;;;21.08;10.43;;;2.80;99.90;;;;;;5009265;28;20053;-75
2023/12/04 06:05:37;;;;;;;21.58;11.40;;;2.90;99.90;;;;;;5011109;28;20034;-74
2023/12/04 06:08:04;;;;;;;22.02;11.13;;;2.90;99.90;;;;;;5012436;28;20037;-75
2023/12/04 06:10:30;;;;;;;20.80;11.43;;;2.80;99.90;;;;;;5009012;28;20164;-75
2023/12/04 06:12:55;;;;;;;24.85;11.85;;;2.80;99.90;;;;;;5011079;28;20542;-75
2023/12/04 06:15:21;;;;;;;20.40;10.70;;;2.80;99.90;;;;;;5009911;28;20602;-75
2023/12/04 06:17:47;;;;;;;19.55;12.07;;;2.80;99.90;;;;;;5012408;28;20497;-76
2023/12/04 06:20:13;;;;;;;22.58;11.70;;;2.80;99.90;;;;;;5010721;28;20508;-74
2023/12/04 06:22:38;;;;;;;21.77;11.82;;;2.90;99.90;;;;;;5009725;28;20037;-77
2023/12/04 06:25:05;;;;;;;20.88;10.48;;;2.90;99.90;;;;;;5010926;28;20085;-76
2023/12/04 06:27:31;;;;;;;20.02;10.80;;;2.80;99.90;;;;;;5007834;28;20108;-73
2023/12/04 06:29:58;;;;;;;23.73;10.80;;;2.80;99.90;;;;;;5011868;28;20113;-72
2023/12/04 06:32:24;;;;;;;20.85;10.00;;;2.80;99.90;;;;;;5010810;28;20030;-76
2023/12/04 06:34:50;;;;;;;16.08;9.32;;;2.70;99.90;;;;;;5010699;28;20033;-76
2023/12/04 06:37:16;;;;;;;19.48;10.38;;;2.80;99.90;;;;;;5010862;28;20034;-76
2023/12/04 06:39:44;;;;;;;18.80;10.68;;;2.70;99.90;;;;;;5009819;28;20028;-74
2023/12/04 06:42:11;;;;;;;19.55;8.93;;;2.70;99.90;;;;;;5009220;28;20068;-73
2023/12/04 06:44:37;;;;;;;15.73;8.98;;;2.70;99.90;;;;;;5012132;28;20072;-72
2023/12/04 06:47:04;;;;;;;14.57;8.68;;;2.70;99.90;;;;;;5008166;28;20053;-71
2023/12/04 06:49:31;;;;;;;15.13;8.73;;;2.70;99.90;;;;;;5011590;28;20060;-76
2023/12/04 06:51:58;;;;;;;15.48;8.82;;;2.80;99.90;;;;;;5008139;28;20143;-72
2023/12/04 06:54:24;;;;;;;16.73;8.45;;;2.80;99.90;;;;;;4991424;28;20108;-71
2023/12/04 06:56:50;;;;;;;14.48;8.38;;;2.80;99.90;;;;;;5011244;28;20505;-71
2023/12/04 06:59:17;;;;;;;15.00;8.63;;;2.80;99.90;;;;;;5008862;28;20018;-76
2023/12/04 07:01:43;;;;;;;14.45;8.80;;;2.80;99.90;;;;;;5008556;28;20399;-72
2023/12/04 07:04:11;;;;;;;12.75;7.90;;;2.70;99.90;;;;;;5011811;28;20052;-71
2023/12/04 07:06:38;;;;;;;16.25;8.38;;;2.70;99.90;;;;;;5008951;28;20044;-76
2023/12/04 07:09:04;;;;;;;17.65;8.57;;;2.60;99.90;;;;;;5011201;28;20372;-71
2023/12/04 07:11:30;;;;;;;13.90;7.95;;;2.70;99.90;;;;;;5011319;28;20530;-73
2023/12/04 07:13:56;;;;;;;15.25;8.07;;;2.70;99.90;;;;;;5010904;28;20057;-80
2023/12/04 07:16:22;;;;;;;15.82;7.95;;;2.70;99.90;;;;;;5010128;28;20062;-78
2023/12/04 07:18:47;;;;;;;12.68;7.95;;;2.70;99.90;;;;;;5009081;28;20045;-77
2023/12/04 07:21:13;;;;;;;16.25;8.00;;;2.60;99.90;;;;;;5007970;28;20029;-77
2023/12/04 07:23:39;;;;;;;14.75;8.60;;;2.70;99.90;;;;;;5009319;28;20041;-77
2023/12/04 07:26:06;;;;;;;13.43;7.88;;;2.60;99.90;;;;;;5009676;28;20482;-74
2023/12/04 07:28:33;;;;;;;13.55;7.50;;;2.70;99.90;;;;;;5008090;28;20036;-71
2023/12/04 07:30:58;;;;;;;15.05;9.20;;;2.80;99.90;;;;;;5009661;28;20447;-76
2023/12/04 07:33:24;;;;;;;10.88;6.78;;;2.70;99.90;;;;;;5006614;28;20061;-72
2023/12/04 07:35:51;;;;;;;11.68;6.78;;;2.80;99.90;;;;;;5010085;28;20034;-73
2023/12/04 07:38:17;;;;;;;12.05;7.03;;;2.80;99.90;;;;;;5006763;28;20014;-76
2023/12/04 07:40:43;;;;;;;11.88;6.72;;;2.80;99.90;;;;;;5010094;28;20562;-77
2023/12/04 07:43:09;;;;;;;10.15;6.78;;;2.80;99.90;;;;;;5009562;28;20080;-78
2023/12/04 07:45:36;;;;;;;10.65;7.25;;;2.80;99.90;;;;;;5007493;28;20029;-77
2023/12/04 07:48:03;;;;;;;10.68;6.82;;;2.70;99.90;;;;;;5009703;28;20018;-76
2023/12/04 07:50:29;;;;;;;11.35;7.05;;;2.70;99.90;;;;;;5009133;28;20302;-73
2023/12/04 07:52:55;;;;;;;12.30;7.45;;;2.70;99.90;;;;;;5007369;28;20494;-77
2023/12/04 07:55:20;;;;;;;14.13;7.47;;;2.80;99.90;;;;;;4993395;28;20363;-79
2023/12/04 07:57:47;;;;;;;11.18;7.05;;;2.70;99.90;;;;;;5009010;28;20030;-76
2023/12/04 08:00:14;;;;;;;12.73;7.60;;;2.70;99.90;;;;;;5007864;28;20038;-73
2023/12/04 08:02:40;;;;;;;10.90;6.93;;;2.70;99.90;;;;;;5009189;28;20108;-75
2023/12/04 08:05:06;;;;;;;12.82;7.78;;;2.80;99.90;;;;;;5008741;28;20475;-77
2023/12/04 08:07:32;;;;;;;10.68;6.85;;;2.80;99.90;;;;;;4989277;28;20018;-76
2023/12/04 08:09:57;;;;;;;11.52;7.13;;;2.70;99.90;;;;;;5011286;28;20743;-74
2023/12/04 08:12:23;;;;;;;11.60;7.45;;;2.80;99.90;;;;;;5009720;28;20168;-76
2023/12/04 08:14:49;;;;;;;11.30;6.93;;;2.80;99.90;;;;;;5006420;28;20022;-75
2023/12/04 08:17:15;;;;;;;11.52;7.57;;;2.90;99.90;;;;;;5009822;28;20049;-77
2023/12/04 08:19:41;;;;;;;11.30;7.28;;;2.90;99.90;;;;;;5008635;28;20030;-74
2023/12/04 08:22:07;;;;;;;13.52;7.50;;;2.90;99.90;;;;;;5010306;28;20065;-79
2023/12/04 08:24:33;;;;;;;13.43;7.60;;;2.80;99.90;;;;;;5006700;28;20049;-75
2023/12/04 08:26:58;;;;;;;13.52;7.35;;;2.90;99.90;;;;;;5009608;28;20502;-72
2023/12/04 08:29:24;;;;;;;12.50;7.00;;;3.00;99.90;;;;;;5008481;28;20030;-78
2023/12/04 08:31:50;;;;;;;12.07;6.93;;;2.90;99.90;;;;;;5012475;28;20380;-72
2023/12/04 08:34:16;;;;;;;11.15;7.00;;;3.00;99.90;;;;;;5013886;28;20026;-75
2023/12/04 08:36:41;;;;;;;12.98;7.25;;;3.00;99.90;;;;;;5010953;28;20022;-77
2023/12/04 08:39:07;;;;;;;12.05;7.28;;;3.00;99.90;;;;;;5014107;28;20097;-76
2023/12/04 08:41:33;;;;;;;11.93;7.07;;;3.00;99.90;;;;;;5010117;28;20475;-74
2023/12/04 08:43:59;;;;;;;14.10;8.13;;;3.00;99.90;;;;;;5013171;28;20507;-75
2023/12/04 08:46:24;;;;;;;13.63;7.70;;;3.00;99.90;;;;;;5011858;28;20044;-75
2023/12/04 08:48:50;;;;;;;10.43;7.03;;;3.00;99.90;;;;;;5012851;28;20383;-74
2023/12/04 08:51:17;;;;;;;11.55;7.10;;;2.90;99.90;;;;;;5011044;28;20032;-74
2023/12/04 08:53:43;;;;;;;13.60;7.70;;;2.90;99.90;;;;;;5011265;28;20033;-73
2023/12/04 08:56:10;;;;;;;11.35;7.13;;;3.00;99.90;;;;;;5011855;28;20034;-75
2023/12/04 08:58:36;;;;;;;12.48;7.80;;;3.00;99.90;;;;;;5013343;28;20022;-80
2023/12/04 09:01:03;;;;;;;12.75;7.70;;;2.90;99.90;;;;;;5013000;28;20044;-79
2023/12/04 09:03:31;;;;;;;12.25;7.45;;;3.00;99.90;;;;;;5012638;28;20026;-71
2023/12/04 09:05:57;;;;;;;11.70;7.38;;;2.90;99.90;;;;;;5010447;28;20083;-80
2023/12/04 09:08:25;;;;;;;11.77;7.53;;;3.00;99.90;;;;;;5013051;28;20109;-75
2023/12/04 09:10:51;;;;;;;11.23;6.90;;;3.00;99.90;;;;;;5013041;28;20018;-75
2023/12/04 09:13:17;;;;;;;10.10;7.13;;;3.00;99.90;;;;;;4994833;28;20068;-72
2023/12/04 09:15:42;;;;;;;12.13;7.07;;;3.00;99.90;;;;;;5011749;28;20446;-76
2023/12/04 09:18:08;;;;;;;16.45;7.05;;;3.10;99.90;;;;;;5013051;28;20453;-77
2023/12/04 09:20:34;;;;;;;11.50;7.03;;;3.10;99.90;;;;;;4988391;28;20475;-78
2023/12/04 09:23:00;;;;;;;8.57;6.65;;;3.10;99.90;;;;;;4995982;28;20079;-73
2023/12/04 09:25:25;;;;;;;10.48;7.03;;;3.10;99.90;;;;;;5012617;28;20030;-78
2023/12/04 09:27:51;;;;;;;12.77;7.05;;;3.10;99.90;;;;;;5013186;28;20033;-80
2023/12/04 09:30:17;;;;;;;8.90;6.47;;;3.10;99.90;;;;;;5010903;28;20394;-76
2023/12/04 09:32:43;;;;;;;12.13;7.55;;;3.10;99.90;;;;;;5011759;28;20034;-78
2023/12/04 09:35:09;;;;;;;15.20;7.55;;;3.20;99.90;;;;;;5013169;28;20025;-84
2023/12/04 09:37:35;;;;;;;10.38;6.90;;;3.20;99.90;;;;;;5010228;28;20038;-79
2023/12/04 09:40:01;;;;;;;12.85;8.65;;;3.20;99.90;;;;;;5012606;28;20022;-77
2023/12/04 09:42:27;;;;;;;12.02;7.35;;;3.30;99.90;;;;;;4988980;28;20034;-76
2023/12/04 09:44:54;;;;;;;15.70;8.75;;;3.30;99.90;;;;;;5012851;28;20018;-76
2023/12/04 09:47:22;;;;;;;12.00;7.03;;;3.30;99.90;;;;;;5011281;28;20073;-74
2023/12/04 09:49:51;;;;;;;12.57;7.63;;;3.30;99.90;;;;;;5011843;28;20049;-73
2023/12/04 09:52:18;;;;;;;13.27;7.22;;;3.30;99.90;;;;;;5012121;28;20634;-73
2023/12/04 09:54:44;;;;;;;13.02;7.43;;;3.30;99.90;;;;;;5013666;28;20034;-75
2023/12/04 09:57:10;;;;;;;11.07;6.57;;;3.30;99.90;;;;;;5010088;28;20037;-74
2023/12/04 09:59:36;;;;;;;14.25;7.35;;;3.40;99.90;;;;;;4991902;28;20049;-76
2023/12/04 10:02:02;;;;;;;10.88;7.18;;;3.40;99.90;;;;;;5013235;28;20028;-76
2023/12/04 10:04:28;;;;;;;11.27;6.78;;;3.30;99.90;;;;;;5011981;28;20553;-73
2023/12/04 10:06:55;;;;;;;20.75;8.80;;;3.50;99.90;;;;;;5010071;28;20092;-76
2023/12/04 10:09:22;;;;;;;16.25;8.23;;;3.50;99.90;;;;;;5011856;28;20017;-86
2023/12/04 10:11:50;;;;;;;13.43;7.53;;;3.60;99.90;;;;;;5010711;28;20037;-73
2023/12/04 10:14:19;;;;;;;12.63;7.53;;;3.50;99.90;;;;;;5011750;28;20021;-80
2023/12/04 10:16:45;;;;;;;12.57;7.30;;;3.60;99.90;;;;;;4995510;28;20034;-76
2023/12/04 10:19:18;;;;;;;14.88;8.27;;;3.50;99.90;;;;;;5010584;28;20021;-80
2023/12/04 10:21:46;;;;;;;16.00;8.45;;;3.70;99.90;;;;;;5012480;28;20175;-76
2023/12/04 10:24:12;;;;;;;12.93;8.45;;;3.60;99.90;;;;;;5013293;28;20071;-77
2023/12/04 10:26:49;;;;;;;14.93;8.00;;;3.70;99.90;;;;;;5011142;28;20045;-77
2023/12/04 10:29:14;;;;;;;17.45;8.32;;;3.60;99.90;;;;;;4969105;28;20130;-81
2023/12/04 10:31:40;;;;;;;12.95;7.68;;;3.60;99.90;;;;;;4998706;28;20109;-78
2023/12/04 10:34:09;;;;;;;13.30;8.40;;;3.70;99.90;;;;;;4993136;28;20025;-77
2023/12/04 10:36:36;;;;;;;16.10;9.82;;;3.60;99.90;;;;;;4985327;28;20033;-76
2023/12/04 10:39:04;;;;;;;15.75;9.68;;;3.60;99.90;;;;;;4995619;28;20026;-78
2023/12/04 10:41:31;;;;;;;13.18;8.80;;;3.60;99.90;;;;;;4995961;28;20018;-73
2023/12/04 10:43:57;;;;;;;16.15;9.88;;;3.70;99.90;;;;;;4997822;28;20025;-75
2023/12/04 10:46:26;;;;;;;15.65;9.50;;;3.70;99.90;;;;;;4994202;28;20418;-75
2023/12/04 10:48:52;;;;;;;16.15;10.23;;;3.70;99.90;;;;;;4993583;28;20657;-75
2023/12/04 10:51:22;;;;;;;16.45;10.02;;;3.60;99.90;;;;;;4995526;28;20018;-72
2023/12/04 10:53:48;;;;;;;15.35;10.05;;;3.60;99.90;;;;;;4995005;28;20033;-72
2023/12/04 10:56:20;;;;;;;16.27;10.45;;;3.60;99.90;;;;;;4996221;28;20046;-73
2023/12/04 10:58:50;;;;;;;18.75;10.35;;;3.60;99.90;;;;;;4993187;28;20026;-73
2023/12/04 11:01:19;;;;;;;13.75;8.80;;;3.70;99.90;;;;;;4995343;28;20107;-74
2023/12/04 11:03:48;;;;;;;15.60;9.68;;;3.70;99.90;;;;;;4997553;28;20018;-73
2023/12/04 11:06:16;;;;;;;15.52;9.27;;;3.80;99.90;;;;;;4995214;28;20034;-75
2023/12/04 11:08:43;;;;;;;16.10;10.38;;;3.70;99.90;;;;;;4996563;28;20077;-74
2023/12/04 11:11:15;;;;;;;16.35;9.93;;;3.80;99.90;;;;;;4994552;28;20125;-73
2023/12/04 11:13:42;;;;;;;17.10;9.30;;;3.70;99.90;;;;;;4996574;28;20025;-73
2023/12/04 11:16:17;;;;;;;16.65;9.85;;;3.70;99.90;;;;;;4995850;28;20479;-75
2023/12/04 11:18:48;;;;;;;18.00;10.27;;;3.70;99.90;;;;;;4992927;28;20056;-72
2023/12/04 11:21:15;;;;;;;19.08;11.68;;;3.70;99.90;;;;;;4984146;28;20026;-73
2023/12/04 11:23:42;;;;;;;19.45;11.40;;;3.60;99.90;;;;;;4992272;28;20060;-72
2023/12/04 11:26:10;;;;;;;16.85;10.65;;;3.60;99.90;;;;;;4993312;28;20061;-76
2023/12/04 11:28:38;;;;;;;20.45;10.38;;;3.60;99.90;;;;;;4995485;28;20073;-74
2023/12/04 11:31:05;;;;;;;22.10;11.27;;;3.60;99.90;;;;;;4993932;28;21387;-75
2023/12/04 11:33:37;;;;;;;18.58;10.70;;;3.70;99.90;;;;;;4998014;28;20053;-73
2023/12/04 11:36:13;;;;;;;20.17;12.93;;;3.60;99.90;;;;;;4996756;28;20025;-75
2023/12/04 11:38:44;;;;;;;21.70;13.10;;;3.70;99.90;;;;;;4993857;28;20026;-76
2023/12/04 11:41:17;;;;;;;17.48;11.10;;;3.70;99.90;;;;;;4995626;28;20487;-73
2023/12/04 11:43:43;;;;;;;;;;;3.70;99.90;;;;;;4985124;28;20410;-74
2023/12/04 11:46:09;;;;;;;19.55;11.40;;;3.70;99.90;;;;;;4985365;28;20405;-73
2023/12/04 11:48:40;;;;;;;18.92;11.05;;;3.70;99.90;;;;;;4995694;28;20386;-77
2023/12/04 11:51:07;;;;;;;23.17;11.77;;;3.70;99.90;;;;;;4994576;28;20362;-73
2023/12/04 11:53:37;;;;;;;19.75;11.52;;;3.70;99.90;;;;;;4995232;28;20036;-74
2023/12/04 11:56:12;;;;;;;18.83;10.80;;;3.70;99.90;;;;;;4995265;28;20026;-72
2023/12/04 11:58:45;;;;;;;21.13;12.07;;;3.80;99.90;;;;;;4995323;28;20402;-71
2023/12/04 12:01:10;;;;;;;;;;;3.80;99.90;;;;;;4993299;28;20045;-71
2023/12/04 12:03:36;;;;;;;19.20;11.35;;;3.90;99.90;;;;;;4994779;28;19913;-75
2023/12/04 12:06:03;;;;;;;22.02;11.65;;;3.90;99.90;;;;;;4997895;28;20042;-74
2023/12/04 12:08:29;;;;;;;19.73;11.70;;;3.90;99.90;;;;;;4997198;28;20030;-73
2023/12/04 12:10:57;;;;;;;42.13;11.55;;;3.90;99.90;;;;;;4998855;28;20018;-73
2023/12/04 12:13:25;;;;;;;17.08;11.02;;;3.80;99.90;;;;;;4998024;28;20018;-76
2023/12/04 12:15:52;;;;;;;18.35;10.63;;;3.80;99.90;;;;;;5000214;28;20025;-72
2023/12/04 12:18:18;;;;;;;19.48;10.75;;;3.90;99.90;;;;;;4995686;28;20022;-72
2023/12/04 12:20:44;;;;;;;17.60;11.27;;;3.90;99.90;;;;;;4993947;28;20033;-74
2023/12/04 12:23:09;;;;;;;18.50;11.52;;;3.90;99.90;;;;;;4999008;28;20137;-71
2023/12/04 12:25:36;;;;;;;18.15;9.93;;;3.90;99.90;;;;;;4999752;28;20077;-78
2023/12/04 12:28:05;;;;;;;17.52;9.68;;;3.90;99.90;;;;;;4998110;28;20022;-73
2023/12/04 12:30:32;;;;;;;17.83;10.52;;;4.00;99.90;;;;;;4996687;28;20632;-72
2023/12/04 12:32:57;;;;;;;21.80;11.23;;;4.00;99.90;;;;;;4997017;28;20049;-72
2023/12/04 12:35:24;;;;;;;19.40;11.32;;;3.90;99.90;;;;;;4999547;28;20550;-75